Hlavní strana
METAR-TAF:

METAR-TAF

Letiště :

Angoulême, Francie

zeměpisná šířka: 45-43-46N, zeměpisná délka: 00-13-08E, výška: 132 m

Aktuální stav počasí

Zpráva byla vytvořena před 37 minutami, v 02:00 UTC
Severovýchodní vítr 8 kt
Teplota 15°C
Vlhkost vzduchu 72%
Tlak 1029 hPa
Viditelnost 10 km a více
Žádná oblačnost pod 1500 m, nevyskytují se cumulonimby.

METAR: LFBU 260200Z AUTO 04008KT CAVOK 15/10 Q1029

Čas: 04:37 (02:37 UTC)


TAF: chybějící

Stav a předpovědi počasí z více než 4 000 letišť (zprávy METAR a TAF).

Červené a žluté tečky na mapě představují dostupné meteorologické stanice.

Když kurzor umístíte na tečku, zobrazí se název stanice.

Pak kliknutím zobrazíte stav a předpověď počasí.

Chcete-li změnit mapu, kliknutím na zelené tlačítko se znaménkem +mapu přiblížíte, kliknutím na zelené tlačítko se znaménkem – mapu oddálíte a kliknutím na zelené šipky přejdete na sousední mapy.


METAR-TAF: